createdAt,value
2016-02-29T00:00:16.230Z,50.89
2016-02-29T00:01:16.201Z,50.98
2016-02-29T00:02:16.204Z,50.86
2016-02-29T00:03:16.176Z,50.89
2016-02-29T00:04:16.162Z,50.86
2016-02-29T00:19:44.422Z,51.15
2016-02-29T00:20:44.394Z,51.15
2016-02-29T00:21:44.380Z,51.15
2016-02-29T00:22:44.352Z,51.15
2016-02-29T00:23:44.339Z,51.05
2016-02-29T00:24:44.326Z,51.15
2016-02-29T00:25:44.297Z,51.24
2016-02-29T00:26:44.299Z,51.24
2016-02-29T00:27:44.272Z,51.05
2016-02-29T00:28:44.259Z,51.34
2016-02-29T00:29:44.235Z,51.34
2016-02-29T00:30:44.066Z,51.34
2016-02-29T00:31:44.209Z,51.43
2016-02-29T00:32:44.181Z,51.53
2016-02-29T00:49:49.116Z,51.53
2016-02-29T00:50:49.104Z,51.53
2016-02-29T00:51:49.076Z,51.53
2016-02-29T00:52:49.062Z,51.62
2016-02-29T00:53:49.034Z,51.62
2016-02-29T00:54:49.021Z,51.53
2016-02-29T00:55:49.007Z,51.62
2016-02-29T00:56:48.995Z,51.53
2016-02-29T00:57:48.982Z,51.53
2016-02-29T00:58:48.954Z,51.62
2016-02-29T00:59:48.940Z,51.62
2016-02-29T01:00:48.912Z,51.53
2016-02-29T01:01:48.914Z,51.53
2016-02-29T01:02:48.886Z,51.62
2016-02-29T01:03:48.873Z,51.53
2016-02-29T01:19:47.932Z,51.91
2016-02-29T01:20:47.918Z,51.72
2016-02-29T01:21:47.907Z,51.31
2016-02-29T01:22:47.893Z,51.72
2016-02-29T01:23:47.865Z,51.7
2016-02-29T01:24:47.836Z,51.7
2016-02-29T01:25:47.838Z,51.6
2016-02-29T01:26:47.810Z,51.7
2016-02-29T01:27:47.798Z,51.72
2016-02-29T01:28:47.785Z,51.79
2016-02-29T01:29:47.755Z,51.7
2016-02-29T01:30:47.742Z,51.6
2016-02-29T01:31:47.729Z,51.79
2016-02-29T01:32:47.701Z,51.6
2016-02-29T01:33:47.703Z,51.7
2016-02-29T01:48:45.244Z,51.89
2016-02-29T01:49:45.232Z,52.08
2016-02-29T01:50:45.218Z,51.89
2016-02-29T01:51:45.190Z,52.08
2016-02-29T01:52:45.177Z,51.98
2016-02-29T01:53:45.149Z,51.7
2016-02-29T01:54:45.136Z,51.7
2016-02-29T01:55:45.107Z,51.89
2016-02-29T01:56:45.094Z,51.98
2016-02-29T01:57:45.097Z,51.89
2016-02-29T01:58:45.052Z,51.89
2016-02-29T01:59:45.055Z,51.98
2016-02-29T02:00:45.024Z,51.98
2016-02-29T02:01:45.012Z,51.89
2016-02-29T02:02:44.953Z,51.7
2016-02-29T02:03:44.925Z,51.79
2016-02-29T02:18:29.649Z,51.86
2016-02-29T02:19:29.603Z,51.86
2016-02-29T02:20:29.590Z,52.05
2016-02-29T02:21:29.561Z,52.24
2016-02-29T02:22:29.549Z,52.05
2016-02-29T02:23:29.551Z,52.15
2016-02-29T02:24:29.507Z,51.95
2016-02-29T02:25:29.510Z,51.86
2016-02-29T02:26:29.481Z,52.05
2016-02-29T02:27:29.469Z,51.86
2016-02-29T02:28:29.439Z,51.95
2016-02-29T02:29:29.427Z,51.95
2016-02-29T02:30:29.413Z,52.15
2016-02-29T02:31:29.386Z,52.15
2016-02-29T02:32:29.389Z,51.95
2016-02-29T02:48:27.040Z,52.05
2016-02-29T02:49:27.027Z,51.76
2016-02-29T02:50:27.015Z,52.15
2016-02-29T02:51:26.986Z,52.15
2016-02-29T02:52:26.973Z,52.15
2016-02-29T02:53:26.945Z,52.15
2016-02-29T02:54:26.931Z,51.86
2016-02-29T02:55:26.934Z,52.24
2016-02-29T02:56:26.890Z,51.95
2016-02-29T02:57:26.877Z,52.15
2016-02-29T02:58:26.865Z,52.15
2016-02-29T02:59:26.836Z,52.15
2016-02-29T03:00:26.823Z,52.15
2016-02-29T03:01:26.810Z,52.05
2016-02-29T03:02:26.797Z,52.24
2016-02-29T03:03:26.769Z,52.15
2016-02-29T03:19:45.327Z,52.24
2016-02-29T03:20:45.329Z,52.22
2016-02-29T03:21:45.285Z,52.43
2016-02-29T03:22:45.287Z,52.62
2016-02-29T03:23:45.260Z,52.53
2016-02-29T03:24:45.231Z,52.15
2016-02-29T03:25:45.218Z,52.5
2016-02-29T03:26:45.205Z,52.79
2016-02-29T03:27:45.176Z,52.79
2016-02-29T03:28:45.164Z,52.79
2016-02-29T03:29:45.151Z,52.43
2016-02-29T03:30:45.123Z,52.53
2016-02-29T03:31:45.109Z,52.24
2016-02-29T03:32:45.097Z,52.31
2016-02-29T03:33:45.083Z,52.53
2016-02-29T03:49:19.299Z,52.31
2016-02-29T03:50:19.285Z,52.59
2016-02-29T03:51:19.257Z,52.4
2016-02-29T03:52:19.243Z,52.4
2016-02-29T03:53:19.216Z,52.5
2016-02-29T03:54:19.203Z,52.79
2016-02-29T03:55:19.190Z,52.4
2016-02-29T03:56:19.161Z,52.79
2016-02-29T03:57:19.148Z,52.69
2016-02-29T03:58:19.135Z,52.98
2016-02-29T03:59:19.107Z,52.79
2016-02-29T04:00:19.094Z,52.79
2016-02-29T04:01:19.081Z,52.88
2016-02-29T04:02:19.068Z,52.79
2016-02-29T04:03:19.056Z,52.69
2016-02-29T04:18:48.236Z,52.79
2016-02-29T04:19:48.191Z,52.98
2016-02-29T04:20:48.194Z,52.98
2016-02-29T04:21:48.166Z,52.79
2016-02-29T04:22:48.137Z,52.88
2016-02-29T04:23:48.124Z,52.59
2016-02-29T04:24:48.111Z,52.79
2016-02-29T04:25:48.098Z,52.69
2016-02-29T04:26:48.070Z,52.88
2016-02-29T04:27:48.042Z,52.79
2016-02-29T04:28:48.030Z,52.79
2016-02-29T04:29:48.001Z,52.79
2016-02-29T04:30:48.004Z,52.59
2016-02-29T04:31:47.975Z,52.79
2016-02-29T04:32:47.962Z,52.79
2016-02-29T04:48:27.131Z,52.88
2016-02-29T04:49:27.117Z,52.88
2016-02-29T04:50:27.104Z,52.88
2016-02-29T04:51:27.075Z,52.88
2016-02-29T04:52:27.078Z,52.79
2016-02-29T04:53:27.050Z,52.98
2016-02-29T04:54:27.021Z,52.98
2016-02-29T04:55:27.008Z,52.98
2016-02-29T04:56:26.995Z,52.98
2016-02-29T04:57:26.967Z,52.88
2016-02-29T04:58:26.954Z,52.79
2016-02-29T04:59:26.925Z,52.88
2016-02-29T05:00:26.912Z,52.86
2016-02-29T05:01:26.900Z,52.76
2016-02-29T05:02:26.871Z,52.86
2016-02-29T05:03:26.858Z,52.79
2016-02-29T05:19:35.122Z,52.88
2016-02-29T05:20:35.094Z,52.5
2016-02-29T05:21:35.081Z,52.05
2016-02-29T05:22:35.067Z,51.86
2016-02-29T05:23:35.039Z,51.86
2016-02-29T05:24:35.027Z,51.86
2016-02-29T05:25:35.029Z,51.76
2016-02-29T05:26:35.000Z,51.67
2016-02-29T05:27:34.988Z,51.67
2016-02-29T05:28:34.975Z,51.89
2016-02-29T05:29:34.946Z,51.6
2016-02-29T05:30:34.933Z,51.12
2016-02-29T05:31:34.951Z,50.84
2016-02-29T05:32:34.923Z,50.55
2016-02-29T05:33:34.895Z,50.48
2016-02-29T05:48:33.904Z,48.71
2016-02-29T05:49:33.876Z,48.71
2016-02-29T05:50:33.862Z,48.64
2016-02-29T05:51:33.850Z,48.16
2016-02-29T05:52:33.837Z,47.97
2016-02-29T05:53:33.823Z,47.68
2016-02-29T05:54:33.811Z,47.87
2016-02-29T05:55:33.781Z,47.68
2016-02-29T05:56:33.784Z,47.49
2016-02-29T05:57:33.655Z,47.61
2016-02-29T05:58:33.764Z,47.51
2016-02-29T05:59:33.755Z,47.42
2016-02-29T06:00:34.213Z,47.22
2016-02-29T06:01:33.710Z,47.22
2016-02-29T06:02:33.713Z,47.51
2016-02-29T06:03:33.700Z,47.03
2016-02-29T06:18:52.655Z,47.01
2016-02-29T06:19:52.626Z,46.75
2016-02-29T06:20:52.597Z,46.82
2016-02-29T06:21:52.599Z,46.72
2016-02-29T06:22:52.571Z,46.72
2016-02-29T06:23:52.559Z,46.82
2016-02-29T06:24:52.546Z,47.01
2016-02-29T06:25:52.532Z,46.91
2016-02-29T06:26:52.520Z,46.82
2016-02-29T06:27:52.506Z,46.82
2016-02-29T06:28:52.540Z,46.53
2016-02-29T06:29:52.481Z,46.62
2016-02-29T06:30:52.453Z,47.01
2016-02-29T06:31:52.439Z,46.82
2016-02-29T06:32:52.442Z,46.91
2016-02-29T06:47:56.920Z,47.11
2016-02-29T06:48:56.891Z,47.2
2016-02-29T06:49:56.894Z,47.11
2016-02-29T06:50:56.865Z,47.01
2016-02-29T06:51:56.837Z,47.39
2016-02-29T06:52:56.824Z,47.01
2016-02-29T06:53:56.810Z,47.11
2016-02-29T06:54:56.798Z,47.01
2016-02-29T06:55:56.770Z,47.2
2016-02-29T06:56:56.773Z,47.01
2016-02-29T06:57:56.743Z,46.91
2016-02-29T06:58:56.731Z,47.3
2016-02-29T06:59:56.717Z,47.2
2016-02-29T07:00:56.705Z,47.2
2016-02-29T07:01:56.692Z,47.39
2016-02-29T07:02:56.679Z,47.49
2016-02-29T07:18:12.313Z,47.49
2016-02-29T07:19:12.300Z,47.3
2016-02-29T07:20:12.272Z,46.91
2016-02-29T07:21:12.258Z,47.2
2016-02-29T07:22:12.246Z,47.3
2016-02-29T07:23:12.232Z,47.3
2016-02-29T07:24:12.204Z,47.39
2016-02-29T07:25:12.238Z,46.91
2016-02-29T07:26:12.193Z,46.62
2016-02-29T07:27:12.166Z,46.72
2016-02-29T07:28:12.152Z,46.72
2016-02-29T07:29:12.140Z,46.91
2016-02-29T07:30:12.126Z,46.82
2016-02-29T07:31:12.114Z,46.72
2016-02-29T07:32:12.101Z,46.82
2016-02-29T07:33:12.087Z,46.84
2016-02-29T07:34:12.075Z,46.75
2016-02-29T07:47:49.956Z,46.75
2016-02-29T07:48:49.944Z,46.94
2016-02-29T07:49:49.930Z,46.55
2016-02-29T07:50:49.902Z,46.75
2016-02-29T07:51:49.888Z,46.46
2016-02-29T07:52:49.891Z,46.36
2016-02-29T07:53:49.863Z,45.43
2016-02-29T07:54:49.850Z,45.72
2016-02-29T07:55:49.852Z,45.72
2016-02-29T07:56:49.824Z,45.45
2016-02-29T07:57:49.812Z,45.54
2016-02-29T07:58:49.799Z,45.45
2016-02-29T07:59:49.801Z,45.45
2016-02-29T08:00:49.773Z,45.36
2016-02-29T08:01:49.759Z,45.36
2016-02-29T08:02:49.746Z,45.16
2016-02-29T08:03:49.733Z,45.36
2016-02-29T08:04:49.736Z,45.07
2016-02-29T08:17:17.174Z,41.5
2016-02-29T08:18:17.161Z,41.41
2016-02-29T08:19:17.149Z,41.24
2016-02-29T08:20:17.136Z,41.24
2016-02-29T08:21:17.138Z,40.56
2016-02-29T08:22:17.126Z,40.28
2016-02-29T08:23:17.096Z,40.47
2016-02-29T08:24:17.085Z,40.3
2016-02-29T08:25:17.088Z,40.2
2016-02-29T08:26:17.074Z,39.91
2016-02-29T08:27:17.061Z,40.12
2016-02-29T08:28:17.049Z,39.45
2016-02-29T08:29:17.051Z,39.45
2016-02-29T08:30:17.037Z,39.54
2016-02-29T08:31:17.025Z,39.26
2016-02-29T08:32:17.029Z,38.78
2016-02-29T08:47:50.492Z,36.73
2016-02-29T08:48:50.480Z,36.46
2016-02-29T08:49:50.466Z,36.94
2016-02-29T08:50:50.485Z,36.36
2016-02-29T08:51:50.456Z,36.17
2016-02-29T08:52:50.444Z,36.65
2016-02-29T08:53:50.478Z,36.57
2016-02-29T08:54:50.418Z,35.71
2016-02-29T08:55:50.421Z,35.8
2016-02-29T08:56:50.423Z,35.8
2016-02-29T08:57:50.410Z,35.63
2016-02-29T08:58:50.412Z,35.34
2016-02-29T08:59:50.399Z,35.14
2016-02-29T09:00:50.403Z,34.97
2016-02-29T09:01:50.405Z,35.16
2016-02-29T09:02:50.393Z,35.26
2016-02-29T09:18:56.075Z,35.71
2016-02-29T09:19:56.063Z,35.63
2016-02-29T09:20:56.065Z,35.92
2016-02-29T09:21:56.068Z,35.72
2016-02-29T09:22:56.054Z,35.53
2016-02-29T09:23:56.042Z,35.24
2016-02-29T09:24:56.028Z,35.14
2016-02-29T09:25:56.015Z,35.34
2016-02-29T09:26:56.004Z,35.16
2016-02-29T09:27:56.006Z,35.26
2016-02-29T09:28:55.993Z,34.48
2016-02-29T09:29:55.995Z,34.39
2016-02-29T09:30:55.997Z,34.97
2016-02-29T09:31:55.984Z,34.78
2016-02-29T09:32:55.988Z,34.58
2016-02-29T09:33:55.990Z,34.6
2016-02-29T10:19:05.315Z,32.54
2016-02-29T10:20:05.301Z,32.42
2016-02-29T10:21:05.288Z,32.23
2016-02-29T10:22:05.275Z,32.34
2016-02-29T10:23:05.278Z,32.34
2016-02-29T10:24:05.280Z,32.44
2016-02-29T10:25:05.267Z,32.15
2016-02-29T10:26:05.270Z,31.96
2016-02-29T10:27:05.273Z,32.15
2016-02-29T10:28:05.275Z,32.44
2016-02-29T10:29:05.262Z,32.15
2016-02-29T10:30:05.109Z,32.15
2016-02-29T10:31:05.268Z,32.15
2016-02-29T10:32:05.270Z,32.17
2016-02-29T10:33:05.258Z,32.24
2016-02-29T10:48:50.957Z,33.02
2016-02-29T10:49:50.944Z,32.81
2016-02-29T10:50:50.931Z,32.54
2016-02-29T10:51:50.934Z,32.73
2016-02-29T10:52:50.921Z,32.82
2016-02-29T10:53:50.923Z,32.46
2016-02-29T10:54:50.926Z,32.24
2016-02-29T10:55:50.914Z,32.34
2016-02-29T10:56:50.900Z,32.46
2016-02-29T10:57:50.919Z,32.26
2016-02-29T10:58:50.906Z,32.65
2016-02-29T10:59:50.924Z,31.39
2016-02-29T11:00:50.911Z,30.32
2016-02-29T11:01:50.898Z,30.52
2016-02-29T11:02:50.901Z,29.63
2016-02-29T11:03:50.888Z,29.53
2016-02-29T11:04:50.891Z,29.34
2016-02-29T11:05:50.899Z,29.34
2016-02-29T11:18:58.323Z,29.94
2016-02-29T11:19:58.294Z,29.46
2016-02-29T11:20:58.295Z,29.37
2016-02-29T11:21:58.281Z,29.27
2016-02-29T11:22:58.283Z,29.08
2016-02-29T11:23:58.270Z,29.37
2016-02-29T11:24:58.272Z,29.37
2016-02-29T11:25:58.275Z,29.46
2016-02-29T11:26:58.261Z,29.37
2016-02-29T11:27:58.263Z,29.57
2016-02-29T11:28:58.250Z,29.36
2016-02-29T11:29:58.253Z,29.47
2016-02-29T11:30:58.239Z,29.27
2016-02-29T11:31:58.258Z,28.98
2016-02-29T11:32:58.228Z,29.37
2016-02-29T11:33:58.231Z,29.37
2016-02-29T11:34:58.234Z,29.26
2016-02-29T11:48:29.037Z,30.31
2016-02-29T11:49:29.181Z,30.13
2016-02-29T11:50:29.168Z,30.21
2016-02-29T11:51:29.170Z,30.31
2016-02-29T11:52:29.173Z,30.21
2016-02-29T11:53:29.160Z,30.04
2016-02-29T11:54:29.148Z,30.23
2016-02-29T11:55:29.134Z,30.31
2016-02-29T11:56:29.168Z,30.31
2016-02-29T11:57:29.123Z,30.6
2016-02-29T11:58:29.142Z,30.79
2016-02-29T11:59:29.129Z,30.31
2016-02-29T12:00:29.117Z,30.32
2016-02-29T12:01:29.134Z,30.23
2016-02-29T12:02:29.122Z,30.41
2016-02-29T12:03:29.108Z,30.41
2016-02-29T12:04:29.111Z,31.09
2016-02-29T12:18:16.022Z,32.02
2016-02-29T12:19:16.009Z,31.93
2016-02-29T12:20:15.996Z,31.63
2016-02-29T12:21:15.999Z,31.63
2016-02-29T12:22:15.985Z,33.18
2016-02-29T12:23:15.988Z,32.04
2016-02-29T12:24:15.976Z,32.33
2016-02-29T12:25:15.962Z,32.31
2016-02-29T12:26:15.965Z,32.12
2016-02-29T12:27:15.967Z,31.73
2016-02-29T12:28:15.845Z,31.44
2016-02-29T12:29:15.957Z,31.63
2016-02-29T12:30:15.959Z,32.02
2016-02-29T12:31:16.009Z,31.93
2016-02-29T12:32:15.934Z,31.83
2016-02-29T12:33:15.936Z,32.31
2016-02-29T12:48:31.121Z,31.99
2016-02-29T12:49:31.138Z,31.99
2016-02-29T12:50:31.095Z,32.38
2016-02-29T12:51:31.098Z,31.99
2016-02-29T12:52:31.085Z,32.67
2016-02-29T12:53:31.071Z,32.28
2016-02-29T12:54:31.059Z,32.67
2016-02-29T12:55:31.046Z,32.47
2016-02-29T12:56:31.048Z,32.09
2016-02-29T12:57:31.051Z,32.38
2016-02-29T12:58:31.053Z,32.26
2016-02-29T12:59:31.040Z,32.26
2016-02-29T13:00:31.028Z,32.56
2016-02-29T13:01:31.015Z,32.56
2016-02-29T13:02:31.033Z,32.07
2016-02-29T13:03:31.020Z,32.07
2016-02-29T13:19:03.770Z,34.78
2016-02-29T13:20:03.757Z,35.17
2016-02-29T13:21:03.775Z,35.46
2016-02-29T13:22:03.730Z,35.73
2016-02-29T13:23:03.733Z,36.02
2016-02-29T13:24:03.721Z,35.83
2016-02-29T13:25:03.708Z,35.93
2016-02-29T13:26:03.695Z,35.64
2016-02-29T13:27:03.682Z,36.11
2016-02-29T13:28:03.685Z,36.51
2016-02-29T13:29:03.656Z,36.31
2016-02-29T13:30:03.659Z,35.83
2016-02-29T13:31:03.630Z,36.49
2016-02-29T13:32:03.680Z,36.02
2016-02-29T13:33:03.792Z,36.97
2016-02-29T13:34:03.607Z,37.18
2016-02-29T13:49:56.962Z,36.39
2016-02-29T13:50:56.950Z,36.11
2016-02-29T13:51:56.936Z,36.11
2016-02-29T13:52:56.924Z,35.64
2016-02-29T13:53:56.910Z,35.54
2016-02-29T13:54:56.913Z,35.16
2016-02-29T13:55:56.886Z,35.83
2016-02-29T13:56:56.888Z,36.33
2016-02-29T13:57:56.860Z,35.27
2016-02-29T13:58:56.862Z,35.56
2016-02-29T13:59:56.849Z,35.28
2016-02-29T14:00:56.835Z,34.61
2016-02-29T14:01:56.824Z,34.88
2016-02-29T14:02:56.826Z,34.98
2016-02-29T14:03:56.813Z,34.7
2016-02-29T14:04:56.799Z,34.32
2016-02-29T14:19:30.306Z,34.7
2016-02-29T14:20:30.294Z,34.24
2016-02-29T14:21:30.281Z,34.05
2016-02-29T14:22:30.267Z,33.95
2016-02-29T14:23:30.255Z,33.95
2016-02-29T14:24:30.257Z,33.37
2016-02-29T14:25:30.244Z,33.36
2016-02-29T14:26:30.215Z,33.55
2016-02-29T14:27:30.219Z,33.37
2016-02-29T14:28:30.221Z,33.37
2016-02-29T14:29:30.193Z,33.09
2016-02-29T14:30:30.241Z,32.89
2016-02-29T14:31:30.182Z,33.57
2016-02-29T14:32:30.169Z,33.57
2016-02-29T14:48:44.903Z,38.68
2016-02-29T14:54:07.385Z,40.47
2016-02-29T15:01:11.607Z,35.04
2016-02-29T15:06:11.198Z,35.16
2016-02-29T15:11:11.165Z,35.16
2016-02-29T15:16:11.100Z,35.71
2016-02-29T15:21:11.066Z,36.19
2016-02-29T15:26:11.017Z,36.19
2016-02-29T15:31:10.968Z,36.18
2016-02-29T15:36:10.919Z,36.18
2016-02-29T15:41:10.855Z,37.99
2016-02-29T15:46:10.806Z,37.6
2016-02-29T15:51:10.756Z,37.97
2016-02-29T15:56:10.708Z,38.54
2016-02-29T16:01:10.644Z,38.93
2016-02-29T16:06:10.595Z,39.39
2016-02-29T16:11:10.531Z,40.35
2016-02-29T16:16:10.482Z,41.22
2016-02-29T16:21:10.417Z,41.87
2016-02-29T16:26:10.336Z,42.43
2016-02-29T16:31:10.272Z,43.36
2016-02-29T16:36:10.191Z,44.61
2016-02-29T16:41:10.127Z,44.97
2016-02-29T16:46:10.047Z,44.01
2016-02-29T16:51:09.966Z,47.34
2016-02-29T16:56:09.901Z,46.48
2016-02-29T17:01:09.845Z,46.58
2016-02-29T17:06:09.748Z,47.44
2016-02-29T17:11:09.668Z,47.53
2016-02-29T17:16:09.604Z,47.25
2016-02-29T17:21:09.524Z,47.25
2016-02-29T17:26:09.459Z,46.7
2016-02-29T17:31:09.379Z,46.79
2016-02-29T17:36:09.313Z,45.54
2016-02-29T17:41:09.264Z,46.34
2016-02-29T17:46:09.184Z,46.81
2016-02-29T17:51:09.119Z,45.67
2016-02-29T17:56:09.054Z,45.37
2016-02-29T18:01:08.990Z,45.28
2016-02-29T18:06:08.925Z,44.97
2016-02-29T18:11:08.908Z,45.36
2016-02-29T18:16:08.796Z,44.97
2016-02-29T18:21:08.732Z,44.97
2016-02-29T18:26:08.652Z,45.07
2016-02-29T18:31:08.587Z,44.87
2016-02-29T18:36:08.523Z,44.97
2016-02-29T18:41:08.442Z,44.4
2016-02-29T18:46:08.377Z,44.59
2016-02-29T18:51:08.312Z,44.59
2016-02-29T18:56:08.248Z,44.59
2016-02-29T19:01:08.183Z,44.49
2016-02-29T19:06:08.118Z,44.49
2016-02-29T19:11:08.038Z,44.3
2016-02-29T19:16:07.973Z,44.4
2016-02-29T19:21:07.893Z,44.2
2016-02-29T19:26:07.829Z,44.68
2016-02-29T19:31:07.763Z,44.4
2016-02-29T19:36:07.699Z,44.32
2016-02-29T19:41:07.635Z,44.32
2016-02-29T19:46:07.570Z,44.61
2016-02-29T19:51:07.521Z,44.32
2016-02-29T19:56:07.456Z,44.13
2016-02-29T20:01:07.391Z,44.23
2016-02-29T20:06:07.326Z,44.13
2016-02-29T20:11:07.246Z,44.51
2016-02-29T20:16:07.121Z,44.7
2016-02-29T20:21:07.014Z,44.42
2016-02-29T20:26:06.934Z,44.61
2016-02-29T20:31:06.880Z,44.7
2016-02-29T20:36:06.812Z,44.4
2016-02-29T20:41:06.747Z,44.8
2016-02-29T20:46:06.682Z,44.42
2016-02-29T20:51:06.633Z,44.03
2016-02-29T20:56:06.569Z,44.23
2016-02-29T21:01:06.503Z,44.59
2016-02-29T21:06:06.408Z,44.4
2016-02-29T21:11:06.359Z,44.59
2016-02-29T21:16:06.294Z,44.68
2016-02-29T21:21:06.199Z,44.68
2016-02-29T21:26:06.134Z,45.14
2016-02-29T21:31:06.084Z,44.59
2016-02-29T21:36:06.004Z,44.78
2016-02-29T21:41:05.925Z,44.59
2016-02-29T21:46:05.860Z,44.68
2016-02-29T21:51:05.810Z,44.68
2016-02-29T21:56:05.745Z,44.49
2016-02-29T22:01:05.681Z,44.4
2016-02-29T22:06:05.591Z,44.49
2016-02-29T22:11:05.527Z,44.49
2016-02-29T22:16:05.446Z,44.78
2016-02-29T22:21:05.384Z,45.23
2016-02-29T22:26:05.304Z,45.23
2016-02-29T22:31:05.252Z,45.43
2016-02-29T22:36:05.177Z,45.69
2016-02-29T22:41:05.098Z,46.17
2016-02-29T22:46:05.017Z,46.55
2016-02-29T22:51:04.937Z,46.55
2016-02-29T22:56:04.871Z,46.82
2016-02-29T23:01:04.776Z,46.91
2016-02-29T23:06:04.710Z,47.18
2016-02-29T23:11:04.615Z,47.18
2016-02-29T23:16:04.534Z,47.18
2016-02-29T23:21:04.455Z,47.27
2016-02-29T23:26:04.374Z,47.94
2016-02-29T23:31:04.293Z,48.11
2016-02-29T23:36:04.213Z,48.02
2016-02-29T23:41:04.134Z,47.92
2016-02-29T23:46:04.037Z,48.21
2016-02-29T23:51:03.972Z,48.02
2016-02-29T23:56:03.877Z,48.11
